sensor_id;sensor_type;location;lat;lon;timestamp;temperature;humidity
17423;DHT22;8829;47.932;7.810;2023-07-13T00:00:37;19.70;99.90
17423;DHT22;8829;47.932;7.810;2023-07-13T00:03:05;19.70;99.90
17423;DHT22;8829;47.932;7.810;2023-07-13T00:05:31;19.90;99.90
17423;DHT22;8829;47.932;7.810;2023-07-13T00:08:00;19.90;99.90
17423;DHT22;8829;47.932;7.810;2023-07-13T00:10:27;19.90;99.90
17423;DHT22;8829;47.932;7.810;2023-07-13T00:12:53;19.60;99.90
17423;DHT22;8829;47.932;7.810;2023-07-13T00:15:24;19.50;99.90
17423;DHT22;8829;47.932;7.810;2023-07-13T00:17:52;19.30;99.90
17423;DHT22;8829;47.932;7.810;2023-07-13T00:20:19;19.30;99.90
17423;DHT22;8829;47.932;7.810;2023-07-13T00:22:47;19.40;99.90
17423;DHT22;8829;47.932;7.810;2023-07-13T00:25:16;19.30;99.90
17423;DHT22;8829;47.932;7.810;2023-07-13T00:27:43;19.50;99.90
17423;DHT22;8829;47.932;7.810;2023-07-13T00:30:10;19.30;99.90
17423;DHT22;8829;47.932;7.810;2023-07-13T00:32:37;19.10;99.90
17423;DHT22;8829;47.932;7.810;2023-07-13T00:35:05;19.00;99.90
17423;DHT22;8829;47.932;7.810;2023-07-13T00:37:31;19.00;99.90
17423;DHT22;8829;47.932;7.810;2023-07-13T00:39:59;19.10;99.90
17423;DHT22;8829;47.932;7.810;2023-07-13T00:42:27;19.20;99.90
17423;DHT22;8829;47.932;7.810;2023-07-13T00:45:05;19.10;99.90
17423;DHT22;8829;47.932;7.810;2023-07-13T00:47:32;18.90;99.90
17423;DHT22;8829;47.932;7.810;2023-07-13T00:50:00;18.80;99.90
17423;DHT22;8829;47.932;7.810;2023-07-13T00:52:27;18.50;99.90
17423;DHT22;8829;47.932;7.810;2023-07-13T00:54:54;18.10;99.90
17423;DHT22;8829;47.932;7.810;2023-07-13T00:57:22;18.00;99.90
17423;DHT22;8829;47.932;7.810;2023-07-13T00:59:54;18.00;99.90
17423;DHT22;8829;47.932;7.810;2023-07-13T01:02:22;18.00;99.90
17423;DHT22;8829;47.932;7.810;2023-07-13T01:04:49;17.90;99.90
17423;DHT22;8829;47.932;7.810;2023-07-13T01:07:16;17.80;99.90
17423;DHT22;8829;47.932;7.810;2023-07-13T01:09:43;17.80;99.90
17423;DHT22;8829;47.932;7.810;2023-07-13T01:12:10;17.80;99.90
17423;DHT22;8829;47.932;7.810;2023-07-13T01:14:39;17.80;99.90
17423;DHT22;8829;47.932;7.810;2023-07-13T01:17:08;17.70;99.90
17423;DHT22;8829;47.932;7.810;2023-07-13T01:19:38;17.70;99.90
17423;DHT22;8829;47.932;7.810;2023-07-13T01:22:09;17.60;99.90
17423;DHT22;8829;47.932;7.810;2023-07-13T01:24:37;17.50;99.90
17423;DHT22;8829;47.932;7.810;2023-07-13T01:27:05;17.10;99.90
17423;DHT22;8829;47.932;7.810;2023-07-13T01:29:34;17.10;99.90
17423;DHT22;8829;47.932;7.810;2023-07-13T01:32:08;17.10;99.90
17423;DHT22;8829;47.932;7.810;2023-07-13T01:34:35;17.10;99.90
17423;DHT22;8829;47.932;7.810;2023-07-13T01:37:02;17.20;99.90
17423;DHT22;8829;47.932;7.810;2023-07-13T01:39:31;17.20;99.90
17423;DHT22;8829;47.932;7.810;2023-07-13T01:41:58;17.20;99.90
17423;DHT22;8829;47.932;7.810;2023-07-13T01:44:25;17.30;99.90
17423;DHT22;8829;47.932;7.810;2023-07-13T01:46:52;17.30;99.90
17423;DHT22;8829;47.932;7.810;2023-07-13T01:49:19;17.20;99.90
17423;DHT22;8829;47.932;7.810;2023-07-13T01:51:45;17.10;99.90
17423;DHT22;8829;47.932;7.810;2023-07-13T01:54:12;17.10;99.90
17423;DHT22;8829;47.932;7.810;2023-07-13T01:56:40;17.10;99.90
17423;DHT22;8829;47.932;7.810;2023-07-13T01:59:07;17.10;99.90
17423;DHT22;8829;47.932;7.810;2023-07-13T02:01:34;17.10;99.90
17423;DHT22;8829;47.932;7.810;2023-07-13T02:04:01;16.90;99.90
17423;DHT22;8829;47.932;7.810;2023-07-13T02:06:27;16.80;99.90
17423;DHT22;8829;47.932;7.810;2023-07-13T02:08:54;16.80;99.90
17423;DHT22;8829;47.932;7.810;2023-07-13T02:11:21;16.70;99.90
17423;DHT22;8829;47.932;7.810;2023-07-13T02:13:49;16.70;99.90
17423;DHT22;8829;47.932;7.810;2023-07-13T02:16:16;16.70;99.90
17423;DHT22;8829;47.932;7.810;2023-07-13T02:18:43;16.70;99.90
17423;DHT22;8829;47.932;7.810;2023-07-13T02:21:09;16.70;99.90
17423;DHT22;8829;47.932;7.810;2023-07-13T02:23:36;16.70;99.90
17423;DHT22;8829;47.932;7.810;2023-07-13T02:26:04;16.80;99.90
17423;DHT22;8829;47.932;7.810;2023-07-13T02:28:30;16.90;99.90
17423;DHT22;8829;47.932;7.810;2023-07-13T02:31:06;16.90;99.90
17423;DHT22;8829;47.932;7.810;2023-07-13T02:33:33;16.80;99.90
17423;DHT22;8829;47.932;7.810;2023-07-13T02:36:00;16.80;99.90
17423;DHT22;8829;47.932;7.810;2023-07-13T02:38:26;16.80;99.90
17423;DHT22;8829;47.932;7.810;2023-07-13T02:40:53;16.80;99.90
17423;DHT22;8829;47.932;7.810;2023-07-13T02:43:20;16.70;99.90
17423;DHT22;8829;47.932;7.810;2023-07-13T02:45:46;16.70;99.90
17423;DHT22;8829;47.932;7.810;2023-07-13T02:48:14;16.70;99.90
17423;DHT22;8829;47.932;7.810;2023-07-13T02:50:41;16.60;99.90
17423;DHT22;8829;47.932;7.810;2023-07-13T02:53:08;16.60;99.90
17423;DHT22;8829;47.932;7.810;2023-07-13T02:55:34;16.60;99.90
17423;DHT22;8829;47.932;7.810;2023-07-13T02:58:01;16.60;99.90
17423;DHT22;8829;47.932;7.810;2023-07-13T03:00:28;16.50;99.90
17423;DHT22;8829;47.932;7.810;2023-07-13T03:02:56;16.60;99.90
17423;DHT22;8829;47.932;7.810;2023-07-13T03:05:25;16.50;99.90
17423;DHT22;8829;47.932;7.810;2023-07-13T03:07:51;16.50;99.90
17423;DHT22;8829;47.932;7.810;2023-07-13T03:10:18;16.60;99.90
17423;DHT22;8829;47.932;7.810;2023-07-13T03:12:45;16.60;99.90
17423;DHT22;8829;47.932;7.810;2023-07-13T03:15:11;16.70;99.90
17423;DHT22;8829;47.932;7.810;2023-07-13T03:17:38;16.70;99.90
17423;DHT22;8829;47.932;7.810;2023-07-13T03:20:07;16.60;99.90
17423;DHT22;8829;47.932;7.810;2023-07-13T03:22:36;16.60;99.90
17423;DHT22;8829;47.932;7.810;2023-07-13T03:25:03;16.50;99.90
17423;DHT22;8829;47.932;7.810;2023-07-13T03:27:29;16.50;99.90
17423;DHT22;8829;47.932;7.810;2023-07-13T03:29:56;16.50;99.90
17423;DHT22;8829;47.932;7.810;2023-07-13T03:32:23;16.50;99.90
17423;DHT22;8829;47.932;7.810;2023-07-13T03:34:49;16.40;99.90
17423;DHT22;8829;47.932;7.810;2023-07-13T03:37:16;16.40;99.90
17423;DHT22;8829;47.932;7.810;2023-07-13T03:39:44;16.40;99.90
17423;DHT22;8829;47.932;7.810;2023-07-13T03:42:11;16.40;99.90
17423;DHT22;8829;47.932;7.810;2023-07-13T03:44:39;16.40;99.90
17423;DHT22;8829;47.932;7.810;2023-07-13T03:47:06;16.50;99.90
17423;DHT22;8829;47.932;7.810;2023-07-13T03:49:34;16.50;99.90
17423;DHT22;8829;47.932;7.810;2023-07-13T03:52:01;16.50;99.90
17423;DHT22;8829;47.932;7.810;2023-07-13T03:54:27;16.50;99.90
17423;DHT22;8829;47.932;7.810;2023-07-13T03:56:55;16.40;99.90
17423;DHT22;8829;47.932;7.810;2023-07-13T03:59:22;16.50;99.90
17423;DHT22;8829;47.932;7.810;2023-07-13T04:01:49;16.50;99.90
17423;DHT22;8829;47.932;7.810;2023-07-13T04:04:15;16.50;99.90
17423;DHT22;8829;47.932;7.810;2023-07-13T04:06:42;16.50;99.90
17423;DHT22;8829;47.932;7.810;2023-07-13T04:09:09;16.50;99.90
17423;DHT22;8829;47.932;7.810;2023-07-13T04:11:36;16.50;99.90
17423;DHT22;8829;47.932;7.810;2023-07-13T04:14:04;16.60;99.90
17423;DHT22;8829;47.932;7.810;2023-07-13T04:16:31;16.50;99.90
17423;DHT22;8829;47.932;7.810;2023-07-13T04:18:58;16.60;99.90
17423;DHT22;8829;47.932;7.810;2023-07-13T04:21:26;16.70;99.90
17423;DHT22;8829;47.932;7.810;2023-07-13T04:23:53;16.90;99.90
17423;DHT22;8829;47.932;7.810;2023-07-13T04:26:20;17.00;99.90
17423;DHT22;8829;47.932;7.810;2023-07-13T04:28:48;17.00;99.90
17423;DHT22;8829;47.932;7.810;2023-07-13T04:31:16;17.00;99.90
17423;DHT22;8829;47.932;7.810;2023-07-13T04:33:43;16.90;99.90
17423;DHT22;8829;47.932;7.810;2023-07-13T04:36:11;16.90;99.90
17423;DHT22;8829;47.932;7.810;2023-07-13T04:38:38;17.00;99.90
17423;DHT22;8829;47.932;7.810;2023-07-13T04:41:07;17.00;99.90
17423;DHT22;8829;47.932;7.810;2023-07-13T04:43:34;17.10;99.90
17423;DHT22;8829;47.932;7.810;2023-07-13T04:46:03;17.20;99.90
17423;DHT22;8829;47.932;7.810;2023-07-13T04:48:32;17.20;99.90
17423;DHT22;8829;47.932;7.810;2023-07-13T04:50:59;17.20;99.90
17423;DHT22;8829;47.932;7.810;2023-07-13T04:53:27;17.20;99.90
17423;DHT22;8829;47.932;7.810;2023-07-13T04:55:55;17.20;99.90
17423;DHT22;8829;47.932;7.810;2023-07-13T04:58:22;17.20;99.90
17423;DHT22;8829;47.932;7.810;2023-07-13T05:00:49;17.10;99.90
17423;DHT22;8829;47.932;7.810;2023-07-13T05:03:15;17.00;99.90
17423;DHT22;8829;47.932;7.810;2023-07-13T05:05:53;17.30;99.90
17423;DHT22;8829;47.932;7.810;2023-07-13T05:08:20;17.30;99.90
17423;DHT22;8829;47.932;7.810;2023-07-13T05:10:47;17.50;99.90
17423;DHT22;8829;47.932;7.810;2023-07-13T05:13:14;17.60;99.90
17423;DHT22;8829;47.932;7.810;2023-07-13T05:15:43;17.40;99.90
17423;DHT22;8829;47.932;7.810;2023-07-13T05:18:10;17.70;99.90
17423;DHT22;8829;47.932;7.810;2023-07-13T05:20:37;17.80;99.90
17423;DHT22;8829;47.932;7.810;2023-07-13T05:23:05;17.90;99.90
17423;DHT22;8829;47.932;7.810;2023-07-13T05:25:31;17.80;99.90
17423;DHT22;8829;47.932;7.810;2023-07-13T05:27:58;18.00;99.90
17423;DHT22;8829;47.932;7.810;2023-07-13T05:30:25;18.10;99.90
17423;DHT22;8829;47.932;7.810;2023-07-13T05:32:51;18.20;99.90
17423;DHT22;8829;47.932;7.810;2023-07-13T05:35:18;18.30;99.90
17423;DHT22;8829;47.932;7.810;2023-07-13T05:37:45;18.80;99.90
17423;DHT22;8829;47.932;7.810;2023-07-13T05:40:13;18.80;99.90
17423;DHT22;8829;47.932;7.810;2023-07-13T05:42:39;19.00;99.90
17423;DHT22;8829;47.932;7.810;2023-07-13T05:45:07;19.30;99.90
17423;DHT22;8829;47.932;7.810;2023-07-13T05:47:34;19.70;99.90
17423;DHT22;8829;47.932;7.810;2023-07-13T05:50:00;20.10;99.90
17423;DHT22;8829;47.932;7.810;2023-07-13T05:52:28;20.20;99.90
17423;DHT22;8829;47.932;7.810;2023-07-13T05:54:54;19.90;99.90
17423;DHT22;8829;47.932;7.810;2023-07-13T05:57:22;19.70;99.90
17423;DHT22;8829;47.932;7.810;2023-07-13T05:59:49;19.80;99.90
17423;DHT22;8829;47.932;7.810;2023-07-13T06:02:16;19.70;99.90
17423;DHT22;8829;47.932;7.810;2023-07-13T06:04:42;19.80;99.90
17423;DHT22;8829;47.932;7.810;2023-07-13T06:07:09;20.20;99.90
17423;DHT22;8829;47.932;7.810;2023-07-13T06:09:36;20.20;99.90
17423;DHT22;8829;47.932;7.810;2023-07-13T06:12:04;20.60;99.90
17423;DHT22;8829;47.932;7.810;2023-07-13T06:14:32;20.80;99.90
17423;DHT22;8829;47.932;7.810;2023-07-13T06:16:59;21.50;99.90
17423;DHT22;8829;47.932;7.810;2023-07-13T06:19:25;21.50;99.90
17423;DHT22;8829;47.932;7.810;2023-07-13T06:21:52;21.40;99.90
17423;DHT22;8829;47.932;7.810;2023-07-13T06:24:19;22.30;99.90
17423;DHT22;8829;47.932;7.810;2023-07-13T06:26:45;23.00;99.90
17423;DHT22;8829;47.932;7.810;2023-07-13T06:29:12;23.80;99.90
17423;DHT22;8829;47.932;7.810;2023-07-13T06:31:40;23.80;99.90
17423;DHT22;8829;47.932;7.810;2023-07-13T06:34:07;24.10;99.90
17423;DHT22;8829;47.932;7.810;2023-07-13T06:36:33;24.50;99.90
17423;DHT22;8829;47.932;7.810;2023-07-13T06:39:01;24.90;99.90
17423;DHT22;8829;47.932;7.810;2023-07-13T06:41:28;25.30;99.90
17423;DHT22;8829;47.932;7.810;2023-07-13T06:43:56;25.70;99.90
17423;DHT22;8829;47.932;7.810;2023-07-13T06:46:23;25.80;99.90
17423;DHT22;8829;47.932;7.810;2023-07-13T06:48:51;26.00;99.90
17423;DHT22;8829;47.932;7.810;2023-07-13T06:51:17;26.00;99.90
17423;DHT22;8829;47.932;7.810;2023-07-13T06:53:46;26.00;99.90
17423;DHT22;8829;47.932;7.810;2023-07-13T06:56:13;26.20;99.90
17423;DHT22;8829;47.932;7.810;2023-07-13T06:58:40;26.40;99.90
17423;DHT22;8829;47.932;7.810;2023-07-13T07:01:06;26.70;99.90
17423;DHT22;8829;47.932;7.810;2023-07-13T07:03:33;26.60;99.90
17423;DHT22;8829;47.932;7.810;2023-07-13T07:06:03;26.40;99.90
17423;DHT22;8829;47.932;7.810;2023-07-13T07:08:33;26.70;99.90
17423;DHT22;8829;47.932;7.810;2023-07-13T07:10:59;27.00;99.90
17423;DHT22;8829;47.932;7.810;2023-07-13T07:13:26;27.40;99.90
17423;DHT22;8829;47.932;7.810;2023-07-13T07:15:53;27.60;99.90
17423;DHT22;8829;47.932;7.810;2023-07-13T07:18:20;28.10;99.90
17423;DHT22;8829;47.932;7.810;2023-07-13T07:20:48;28.10;99.90
17423;DHT22;8829;47.932;7.810;2023-07-13T07:23:17;28.40;99.90
17423;DHT22;8829;47.932;7.810;2023-07-13T07:25:44;28.40;99.90
17423;DHT22;8829;47.932;7.810;2023-07-13T07:28:11;28.70;99.90
17423;DHT22;8829;47.932;7.810;2023-07-13T07:30:41;28.90;99.90
17423;DHT22;8829;47.932;7.810;2023-07-13T07:33:08;29.00;98.70
17423;DHT22;8829;47.932;7.810;2023-07-13T07:35:35;29.00;99.20
17423;DHT22;8829;47.932;7.810;2023-07-13T07:38:01;29.30;98.50
17423;DHT22;8829;47.932;7.810;2023-07-13T07:40:30;29.30;98.80
17423;DHT22;8829;47.932;7.810;2023-07-13T07:42:56;29.70;98.80
17423;DHT22;8829;47.932;7.810;2023-07-13T07:45:23;29.70;98.00
17423;DHT22;8829;47.932;7.810;2023-07-13T07:47:50;29.80;98.10
17423;DHT22;8829;47.932;7.810;2023-07-13T07:50:17;29.90;97.80
17423;DHT22;8829;47.932;7.810;2023-07-13T07:52:45;30.10;97.10
17423;DHT22;8829;47.932;7.810;2023-07-13T07:55:12;30.20;96.30
17423;DHT22;8829;47.932;7.810;2023-07-13T07:57:40;30.10;96.30
17423;DHT22;8829;47.932;7.810;2023-07-13T08:00:08;30.20;96.50
17423;DHT22;8829;47.932;7.810;2023-07-13T08:02:35;30.60;95.30
17423;DHT22;8829;47.932;7.810;2023-07-13T08:05:01;30.40;94.30
17423;DHT22;8829;47.932;7.810;2023-07-13T08:07:30;30.20;93.90
17423;DHT22;8829;47.932;7.810;2023-07-13T08:09:57;30.10;94.10
17423;DHT22;8829;47.932;7.810;2023-07-13T08:12:24;29.90;93.00
17423;DHT22;8829;47.932;7.810;2023-07-13T08:14:52;30.10;95.00
17423;DHT22;8829;47.932;7.810;2023-07-13T08:17:23;30.40;93.40
17423;DHT22;8829;47.932;7.810;2023-07-13T08:19:50;30.60;92.20
17423;DHT22;8829;47.932;7.810;2023-07-13T08:22:16;30.70;93.30
17423;DHT22;8829;47.932;7.810;2023-07-13T08:24:43;31.10;93.00
17423;DHT22;8829;47.932;7.810;2023-07-13T08:27:10;31.00;92.60
17423;DHT22;8829;47.932;7.810;2023-07-13T08:29:38;30.90;93.00
17423;DHT22;8829;47.932;7.810;2023-07-13T08:32:08;31.30;90.90
17423;DHT22;8829;47.932;7.810;2023-07-13T08:34:36;31.20;91.30
17423;DHT22;8829;47.932;7.810;2023-07-13T08:37:03;31.30;91.10
17423;DHT22;8829;47.932;7.810;2023-07-13T08:39:30;31.70;89.30
17423;DHT22;8829;47.932;7.810;2023-07-13T08:42:01;32.00;87.60
17423;DHT22;8829;47.932;7.810;2023-07-13T08:44:39;31.80;86.30
17423;DHT22;8829;47.932;7.810;2023-07-13T08:47:09;31.40;86.40
17423;DHT22;8829;47.932;7.810;2023-07-13T08:49:38;30.80;86.10
17423;DHT22;8829;47.932;7.810;2023-07-13T08:52:09;30.70;87.90
17423;DHT22;8829;47.932;7.810;2023-07-13T08:54:39;30.70;89.80
17423;DHT22;8829;47.932;7.810;2023-07-13T08:57:12;30.60;87.70
17423;DHT22;8829;47.932;7.810;2023-07-13T08:59:40;30.60;88.50
17423;DHT22;8829;47.932;7.810;2023-07-13T09:02:21;30.70;90.00
17423;DHT22;8829;47.932;7.810;2023-07-13T09:04:52;30.70;90.60
17423;DHT22;8829;47.932;7.810;2023-07-13T09:07:31;30.70;90.40
17423;DHT22;8829;47.932;7.810;2023-07-13T09:10:11;30.60;91.10
17423;DHT22;8829;47.932;7.810;2023-07-13T09:12:51;30.60;90.30
17423;DHT22;8829;47.932;7.810;2023-07-13T09:15:27;30.50;90.60
17423;DHT22;8829;47.932;7.810;2023-07-13T09:18:01;30.60;89.20
17423;DHT22;8829;47.932;7.810;2023-07-13T09:20:33;29.50;90.30
17423;DHT22;8829;47.932;7.810;2023-07-13T09:23:04;28.20;91.00
17423;DHT22;8829;47.932;7.810;2023-07-13T09:25:34;27.30;92.40
17423;DHT22;8829;47.932;7.810;2023-07-13T09:28:10;27.10;92.60
17423;DHT22;8829;47.932;7.810;2023-07-13T09:30:43;27.50;93.30
17423;DHT22;8829;47.932;7.810;2023-07-13T09:33:11;27.90;91.90
17423;DHT22;8829;47.932;7.810;2023-07-13T09:35:39;28.10;90.50
17423;DHT22;8829;47.932;7.810;2023-07-13T09:38:12;28.20;91.20
17423;DHT22;8829;47.932;7.810;2023-07-13T09:43:25;28.20;91.20
17423;DHT22;8829;47.932;7.810;2023-07-13T09:45:54;27.90;91.70
17423;DHT22;8829;47.932;7.810;2023-07-13T09:48:23;27.80;93.00
17423;DHT22;8829;47.932;7.810;2023-07-13T09:50:54;27.60;92.50
17423;DHT22;8829;47.932;7.810;2023-07-13T09:53:22;27.50;93.40
17423;DHT22;8829;47.932;7.810;2023-07-13T09:55:49;27.30;93.60
17423;DHT22;8829;47.932;7.810;2023-07-13T09:58:18;27.20;93.40
17423;DHT22;8829;47.932;7.810;2023-07-13T10:00:55;27.00;93.90
17423;DHT22;8829;47.932;7.810;2023-07-13T10:03:26;26.90;94.10
17423;DHT22;8829;47.932;7.810;2023-07-13T10:05:54;26.80;95.00
17423;DHT22;8829;47.932;7.810;2023-07-13T10:08:23;26.90;94.80
17423;DHT22;8829;47.932;7.810;2023-07-13T10:10:57;26.90;93.50
17423;DHT22;8829;47.932;7.810;2023-07-13T10:13:30;26.90;93.50
17423;DHT22;8829;47.932;7.810;2023-07-13T10:15:58;26.60;92.70
17423;DHT22;8829;47.932;7.810;2023-07-13T10:18:29;26.50;93.30
17423;DHT22;8829;47.932;7.810;2023-07-13T10:21:10;26.40;93.60
17423;DHT22;8829;47.932;7.810;2023-07-13T10:23:39;26.40;92.70
17423;DHT22;8829;47.932;7.810;2023-07-13T10:26:11;26.30;92.70
17423;DHT22;8829;47.932;7.810;2023-07-13T10:28:40;26.30;94.20
17423;DHT22;8829;47.932;7.810;2023-07-13T10:31:12;26.30;93.80
17423;DHT22;8829;47.932;7.810;2023-07-13T10:33:41;26.10;95.70
17423;DHT22;8829;47.932;7.810;2023-07-13T10:36:14;26.20;95.50
17423;DHT22;8829;47.932;7.810;2023-07-13T10:38:43;26.20;96.10
17423;DHT22;8829;47.932;7.810;2023-07-13T10:41:15;26.20;95.90
17423;DHT22;8829;47.932;7.810;2023-07-13T10:43:45;26.40;93.60
17423;DHT22;8829;47.932;7.810;2023-07-13T10:46:15;26.50;94.80
17423;DHT22;8829;47.932;7.810;2023-07-13T10:48:46;26.50;94.60
17423;DHT22;8829;47.932;7.810;2023-07-13T10:51:14;26.30;94.70
17423;DHT22;8829;47.932;7.810;2023-07-13T10:53:41;26.40;95.30
17423;DHT22;8829;47.932;7.810;2023-07-13T10:56:22;26.20;96.00
17423;DHT22;8829;47.932;7.810;2023-07-13T10:59:02;26.20;93.60
17423;DHT22;8829;47.932;7.810;2023-07-13T11:01:40;26.10;92.40
17423;DHT22;8829;47.932;7.810;2023-07-13T11:04:16;26.00;94.50
17423;DHT22;8829;47.932;7.810;2023-07-13T11:06:48;26.10;95.40
17423;DHT22;8829;47.932;7.810;2023-07-13T11:09:31;26.20;96.10
17423;DHT22;8829;47.932;7.810;2023-07-13T11:11:59;26.40;96.10
17423;DHT22;8829;47.932;7.810;2023-07-13T11:14:29;26.60;95.60
17423;DHT22;8829;47.932;7.810;2023-07-13T11:16:57;26.70;94.30
17423;DHT22;8829;47.932;7.810;2023-07-13T11:19:40;26.70;94.10
17423;DHT22;8829;47.932;7.810;2023-07-13T11:22:13;26.50;93.50
17423;DHT22;8829;47.932;7.810;2023-07-13T11:24:57;26.50;92.50
17423;DHT22;8829;47.932;7.810;2023-07-13T11:27:36;26.60;93.60
17423;DHT22;8829;47.932;7.810;2023-07-13T11:30:24;26.60;93.70
17423;DHT22;8829;47.932;7.810;2023-07-13T11:33:02;26.10;92.20
17423;DHT22;8829;47.932;7.810;2023-07-13T11:35:34;25.80;93.20
17423;DHT22;8829;47.932;7.810;2023-07-13T11:38:13;26.00;91.80
17423;DHT22;8829;47.932;7.810;2023-07-13T11:40:41;26.10;93.40
17423;DHT22;8829;47.932;7.810;2023-07-13T11:43:13;26.10;93.10
17423;DHT22;8829;47.932;7.810;2023-07-13T11:45:41;26.10;92.60
17423;DHT22;8829;47.932;7.810;2023-07-13T11:48:18;26.00;92.60
17423;DHT22;8829;47.932;7.810;2023-07-13T11:50:53;26.10;92.50
17423;DHT22;8829;47.932;7.810;2023-07-13T11:53:20;26.20;92.20
17423;DHT22;8829;47.932;7.810;2023-07-13T11:55:47;26.20;92.10
17423;DHT22;8829;47.932;7.810;2023-07-13T11:58:19;26.20;92.10
17423;DHT22;8829;47.932;7.810;2023-07-13T12:00:48;26.20;90.80
17423;DHT22;8829;47.932;7.810;2023-07-13T12:03:19;26.20;91.20
17423;DHT22;8829;47.932;7.810;2023-07-13T12:05:59;26.10;93.30
17423;DHT22;8829;47.932;7.810;2023-07-13T12:08:27;26.10;93.40
17423;DHT22;8829;47.932;7.810;2023-07-13T12:11:00;26.20;94.30
17423;DHT22;8829;47.932;7.810;2023-07-13T12:13:35;26.20;93.10
17423;DHT22;8829;47.932;7.810;2023-07-13T12:16:11;26.20;92.70
17423;DHT22;8829;47.932;7.810;2023-07-13T12:18:37;26.20;92.90
17423;DHT22;8829;47.932;7.810;2023-07-13T12:21:13;26.40;93.00
17423;DHT22;8829;47.932;7.810;2023-07-13T12:23:43;26.50;91.90
17423;DHT22;8829;47.932;7.810;2023-07-13T12:26:11;26.50;92.80
17423;DHT22;8829;47.932;7.810;2023-07-13T12:28:43;26.50;91.60
17423;DHT22;8829;47.932;7.810;2023-07-13T12:31:24;26.50;92.40
17423;DHT22;8829;47.932;7.810;2023-07-13T12:33:56;26.50;91.30
17423;DHT22;8829;47.932;7.810;2023-07-13T12:36:25;26.50;92.00
17423;DHT22;8829;47.932;7.810;2023-07-13T12:38:52;26.50;90.40
17423;DHT22;8829;47.932;7.810;2023-07-13T12:41:19;26.40;91.30
17423;DHT22;8829;47.932;7.810;2023-07-13T12:43:46;26.40;93.40
17423;DHT22;8829;47.932;7.810;2023-07-13T12:46:18;26.30;92.70
17423;DHT22;8829;47.932;7.810;2023-07-13T12:48:49;26.40;92.20
17423;DHT22;8829;47.932;7.810;2023-07-13T12:51:16;26.40;92.40
17423;DHT22;8829;47.932;7.810;2023-07-13T12:53:50;26.50;92.10
17423;DHT22;8829;47.932;7.810;2023-07-13T12:56:21;26.70;92.60
17423;DHT22;8829;47.932;7.810;2023-07-13T12:58:50;26.80;92.00
17423;DHT22;8829;47.932;7.810;2023-07-13T13:01:21;26.80;92.30
17423;DHT22;8829;47.932;7.810;2023-07-13T13:03:50;26.70;92.10
17423;DHT22;8829;47.932;7.810;2023-07-13T13:06:21;26.80;91.50
17423;DHT22;8829;47.932;7.810;2023-07-13T13:08:51;26.80;92.70
17423;DHT22;8829;47.932;7.810;2023-07-13T13:11:19;26.80;91.60
17423;DHT22;8829;47.932;7.810;2023-07-13T13:13:46;26.60;91.60
17423;DHT22;8829;47.932;7.810;2023-07-13T13:16:18;26.60;92.00
17423;DHT22;8829;47.932;7.810;2023-07-13T13:18:46;26.50;92.10
17423;DHT22;8829;47.932;7.810;2023-07-13T13:21:14;26.50;92.40
17423;DHT22;8829;47.932;7.810;2023-07-13T13:23:41;26.60;92.20
17423;DHT22;8829;47.932;7.810;2023-07-13T13:26:11;26.60;92.80
17423;DHT22;8829;47.932;7.810;2023-07-13T13:28:38;26.60;93.10
17423;DHT22;8829;47.932;7.810;2023-07-13T13:31:05;26.50;93.00
17423;DHT22;8829;47.932;7.810;2023-07-13T13:33:32;26.30;93.10
17423;DHT22;8829;47.932;7.810;2023-07-13T13:35:59;26.10;93.40
17423;DHT22;8829;47.932;7.810;2023-07-13T13:38:27;26.20;94.70
17423;DHT22;8829;47.932;7.810;2023-07-13T13:40:54;26.20;93.40
17423;DHT22;8829;47.932;7.810;2023-07-13T13:43:24;26.30;93.50
17423;DHT22;8829;47.932;7.810;2023-07-13T13:45:53;26.40;93.70
17423;DHT22;8829;47.932;7.810;2023-07-13T13:48:23;26.60;92.70
17423;DHT22;8829;47.932;7.810;2023-07-13T13:50:55;26.60;92.50
17423;DHT22;8829;47.932;7.810;2023-07-13T13:53:22;26.60;93.20
17423;DHT22;8829;47.932;7.810;2023-07-13T13:55:50;26.80;93.50
17423;DHT22;8829;47.932;7.810;2023-07-13T13:58:18;26.70;92.70
17423;DHT22;8829;47.932;7.810;2023-07-13T14:00:47;26.80;91.90
17423;DHT22;8829;47.932;7.810;2023-07-13T14:03:16;26.80;91.70
17423;DHT22;8829;47.932;7.810;2023-07-13T14:05:43;26.70;91.80
17423;DHT22;8829;47.932;7.810;2023-07-13T14:08:13;26.90;92.50
17423;DHT22;8829;47.932;7.810;2023-07-13T14:10:40;26.90;93.70
17423;DHT22;8829;47.932;7.810;2023-07-13T14:13:15;26.80;93.30
17423;DHT22;8829;47.932;7.810;2023-07-13T14:15:44;26.50;92.70
17423;DHT22;8829;47.932;7.810;2023-07-13T14:18:12;26.30;92.60
17423;DHT22;8829;47.932;7.810;2023-07-13T14:20:43;26.40;91.60
17423;DHT22;8829;47.932;7.810;2023-07-13T14:23:10;26.60;91.50
17423;DHT22;8829;47.932;7.810;2023-07-13T14:25:37;26.70;92.90
17423;DHT22;8829;47.932;7.810;2023-07-13T14:28:15;26.80;92.10
17423;DHT22;8829;47.932;7.810;2023-07-13T14:30:43;26.80;91.40
17423;DHT22;8829;47.932;7.810;2023-07-13T14:33:12;26.90;91.90
17423;DHT22;8829;47.932;7.810;2023-07-13T14:35:39;26.90;91.90
17423;DHT22;8829;47.932;7.810;2023-07-13T14:38:09;27.00;91.40
17423;DHT22;8829;47.932;7.810;2023-07-13T14:40:37;26.80;92.10
17423;DHT22;8829;47.932;7.810;2023-07-13T14:43:04;26.70;91.70
17423;DHT22;8829;47.932;7.810;2023-07-13T14:45:34;26.80;90.50
17423;DHT22;8829;47.932;7.810;2023-07-13T14:48:02;26.90;91.00
17423;DHT22;8829;47.932;7.810;2023-07-13T14:50:31;27.00;92.50
17423;DHT22;8829;47.932;7.810;2023-07-13T14:53:00;27.00;92.50
17423;DHT22;8829;47.932;7.810;2023-07-13T14:55:27;26.90;92.70
17423;DHT22;8829;47.932;7.810;2023-07-13T14:57:53;26.70;91.60
17423;DHT22;8829;47.932;7.810;2023-07-13T15:00:21;26.60;90.30
17423;DHT22;8829;47.932;7.810;2023-07-13T15:02:51;26.40;91.20
17423;DHT22;8829;47.932;7.810;2023-07-13T15:05:20;26.50;92.30
17423;DHT22;8829;47.932;7.810;2023-07-13T15:07:50;26.40;92.40
17423;DHT22;8829;47.932;7.810;2023-07-13T15:10:18;26.40;93.60
17423;DHT22;8829;47.932;7.810;2023-07-13T15:12:45;26.40;93.20
17423;DHT22;8829;47.932;7.810;2023-07-13T15:15:13;25.40;93.10
17423;DHT22;8829;47.932;7.810;2023-07-13T15:17:41;25.40;94.60
17423;DHT22;8829;47.932;7.810;2023-07-13T15:20:17;25.70;94.40
17423;DHT22;8829;47.932;7.810;2023-07-13T15:22:45;25.90;94.40
17423;DHT22;8829;47.932;7.810;2023-07-13T15:25:16;26.00;93.30
17423;DHT22;8829;47.932;7.810;2023-07-13T15:27:44;25.40;94.10
17423;DHT22;8829;47.932;7.810;2023-07-13T15:30:12;25.10;94.60
17423;DHT22;8829;47.932;7.810;2023-07-13T15:32:39;24.90;94.50
17423;DHT22;8829;47.932;7.810;2023-07-13T15:35:13;24.90;94.70
17423;DHT22;8829;47.932;7.810;2023-07-13T15:37:41;24.80;95.00
17423;DHT22;8829;47.932;7.810;2023-07-13T15:40:10;24.70;94.90
17423;DHT22;8829;47.932;7.810;2023-07-13T15:42:39;24.50;96.40
17423;DHT22;8829;47.932;7.810;2023-07-13T15:45:15;24.50;96.20
17423;DHT22;8829;47.932;7.810;2023-07-13T15:47:42;24.60;97.20
17423;DHT22;8829;47.932;7.810;2023-07-13T15:50:12;24.80;97.40
17423;DHT22;8829;47.932;7.810;2023-07-13T15:52:40;24.70;95.40
17423;DHT22;8829;47.932;7.810;2023-07-13T15:55:10;24.70;95.50
17423;DHT22;8829;47.932;7.810;2023-07-13T15:57:38;24.50;95.10